• Join FlightAware (Why Join?)
  • Login
  • US Flag 
05:25AM EST


 

Airport Tracker/Info


-or-


 

Live Flight TrackerFlight Track Log ✈ SWA776 ✈ 23-Aug-2014 ✈ KPHX - KSAT

Flight Track Log - Related Links

Times and Time Zones

All times are in EDT time to prevent confusion due to time zone crossing. See the SWA776 flight status page for this flight to view local times or setup timezone preferences in your user account.

Time Position Orientation Groundspeed Altitude Reporting Facility
EDT Latitude Longitude Course Direction KTS MPH feet Rate Location/Type
07:39PM 33.4333 -112.0333 106° East 164 189 2,000  Level Phoenix TRACON
07:41PM 33.3781 -112.1542 241° Southwest 233 268 5,900 1,938 Climbing Albuquerque Center
07:42PM 33.3461 -112.0814 118° Southeast 279 321 8,300 2,439 Climbing Albuquerque Center
07:43PM 33.1495 -110.7720 121° Southeast  Level Estimated
07:43PM 33.3306 -111.9839 101° East 301 346 10,900  Level Albuquerque Center
07:44PM 33.1204 -110.6485 106° East  Level Estimated
07:44PM 33.3111 -111.8694 101° East 350 403 13,500  Level Albuquerque Center
07:45PM 33.2842 -111.7522 105° East 366 421 16,300 2,902 Climbing Albuquerque Center
07:46PM 33.2489 -111.6056 106° East 381 438 19,400 2,683 Climbing Albuquerque Center
07:47PM 33.2183 -111.4794 106° East 393 452 21,800 2,244 Climbing Albuquerque Center
07:48PM 33.1864 -111.3497 106° East 406 467 24,000 1,574 Climbing Albuquerque Center
07:49PM 33.1542 -111.2156 106° East 421 484 25,000 885 Climbing Albuquerque Center
07:50PM 33.1200 -111.0814 107° East 424 488 25,800 1,415 Climbing Albuquerque Center
07:51PM 33.0861 -110.9442 106° East 428 493 27,900 1,805 Climbing Albuquerque Center
07:52PM 33.0517 -110.8053 106° East 434 499 29,500 1,623 Climbing Albuquerque Center
07:53PM 33.0097 -110.6425 107° East 452 520 31,200 1,525 Climbing Albuquerque Center
07:54PM 32.9728 -110.4928 106° East 467 537 32,600 1,268 Climbing Albuquerque Center
07:55PM 32.9325 -110.3394 107° East 480 552 33,800 1,463 Climbing Albuquerque Center
07:56PM 32.8925 -110.1847 107° East 490 564 35,600 1,525 Climbing Albuquerque Center
07:57PM 32.8531 -110.0322 107° East 488 562 36,900 1,131 Climbing Albuquerque Center
07:58PM 32.8136 -109.8789 107° East 486 559 37,900 1,024 Climbing Albuquerque Center
07:59PM 32.7728 -109.7250 107° East 488 562 39,000 488 Climbing Albuquerque Center
08:01PM 32.7239 -109.5397 107° East 490 564 38,900 -49 Descending Albuquerque Center
08:02PM 32.6833 -109.3856 107° East 491 565 38,900  Level Albuquerque Center
08:03PM 32.6411 -109.2322 108° East 492 566 38,900  Level Albuquerque Center
08:04PM 32.6006 -109.0811 108° East 492 566 38,900  Level Albuquerque Center
08:05PM 32.5600 -108.9289 108° East 492 566 38,900  Level Albuquerque Center
08:06PM 32.5192 -108.7775 108° East 491 565 38,900  Level Albuquerque Center
08:07PM 32.4781 -108.6258 108° East 491 565 38,900  Level Albuquerque Center
08:08PM 32.4292 -108.4431 108° East 490 564 38,900  Level Albuquerque Center
08:09PM 32.3889 -108.2981 108° East 490 564 38,900  Level Albuquerque Center
08:10PM 32.3464 -108.1453 108° East 490 564 38,900  Level Albuquerque Center
08:11PM 32.3103 -107.9908 105° East 490 564 38,900  Level Albuquerque Center
08:12PM 32.2744 -107.8367 105° East 490 564 38,900  Level Albuquerque Center
08:13PM 32.2322 -107.6519 105° East 490 564 38,900  Level Albuquerque Center
08:14PM 32.2031 -107.5303 106° East 490 564 38,900  Level Albuquerque Center
08:15PM 32.1611 -107.3475 105° East 488 562 38,900  Level Albuquerque Center
08:16PM 32.1256 -107.1958 105° East 488 562 38,900  Level Albuquerque Center
08:17PM 32.0889 -107.0444 106° East 488 562 38,900  Level Albuquerque Center
08:18PM 32.0536 -106.8928 105° East 487 560 38,900  Level Albuquerque Center
08:19PM 32.0167 -106.7419 106° East 486 559 38,900  Level Albuquerque Center
08:20PM 31.9719 -106.5592 106° East 486 559 38,900  Level Albuquerque Center
08:21PM 31.9344 -106.4072 106° East 486 559 38,900  Level Albuquerque Center
08:22PM 31.8981 -106.2514 105° East 503 579 38,900  Level Albuquerque Center
08:23PM 31.8575 -106.0992 107° East 492 566 38,900  Level Albuquerque Center
08:24PM 31.8183 -105.9469 107° East 490 564 38,900  Level Albuquerque Center
08:25PM 31.7803 -105.7947 106° East 488 562 38,900  Level Albuquerque Center
08:26PM 31.7408 -105.6428 107° East 487 560 38,900  Level Albuquerque Center
08:27PM 31.7033 -105.4906 106° East 487 560 38,900  Level Albuquerque Center
08:28PM 31.6644 -105.3389 107° East 485 558 38,900  Level Albuquerque Center
08:29PM 31.6175 -105.1558 107° East 486 559 38,900  Level Albuquerque Center
08:30PM 31.5789 -105.0050 107° East 485 558 38,900  Level Albuquerque Center
08:31PM 31.5403 -104.8542 107° East 485 558 38,900  Level Albuquerque Center
08:32PM 31.5014 -104.7067 107° East 479 551 38,900  Level Albuquerque Center
08:33PM 31.4625 -104.5572 107° East 479 551 38,900  Level Albuquerque Center
08:34PM 31.4242 -104.4081 107° East 478 550 38,900  Level Albuquerque Center
08:35PM 31.3839 -104.2603 108° East 477 549 38,900  Level Albuquerque Center
08:36PM 31.3444 -104.1128 107° East 477 549 38,900  Level Albuquerque Center
08:37PM 31.3067 -103.9656 107° East 476 548 38,900  Level Albuquerque Center
08:38PM 31.2650 -103.8167 108° East 476 548 38,900  Level Albuquerque Center
08:39PM 31.2164 -103.6447 108° East 477 549 38,900  Level Albuquerque Center
08:40PM 31.1767 -103.4967 107° East 478 550 38,900  Level Albuquerque Center
08:41PM 31.1358 -103.3478 108° East 479 551 38,900  Level Albuquerque Center
08:42PM 31.0931 -103.1997 109° East 481 554 38,900  Level Albuquerque Center
08:43PM 31.0542 -103.0528 107° East 480 552 38,900  Level Albuquerque Center
08:44PM 31.0133 -102.9044 108° East 480 552 38,900  Level Albuquerque Center
08:45PM 30.9711 -102.7567 108° East 481 554 38,900  Level Albuquerque Center
08:46PM 30.9217 -102.5822 108° East 481 554 38,900  Level Albuquerque Center
08:47PM 30.8817 -102.4372 108° East 480 552 38,900  Level Albuquerque Center
08:49PM 30.8411 -102.2939 108° East 478 550 38,900  Level Albuquerque Center
08:50PM 30.7936 -102.1236 108° East 473 544 38,900  Level Houston Center
08:51PM 30.7531 -101.9819 108° East 468 539 38,900 -393 Level Houston Center
08:52PM 30.7125 -101.8381 108° East 469 540 38,100 -836 Descending Houston Center
08:53PM 30.6708 -101.6958 109° East 469 540 37,200 -590 Descending Houston Center
08:54PM 30.6253 -101.5419 109° East 469 540 36,900 -148 Descending Houston Center
08:55PM 30.5839 -101.4006 109° East 468 539 36,900  Level Houston Center
08:56PM 30.5436 -101.2586 108° East 464 534 36,900  Level Houston Center
08:57PM 30.5025 -101.1200 109° East 461 531 36,900  Level Houston Center
08:58PM 30.4614 -100.9803 109° East 460 529 36,900  Level Houston Center
08:59PM 30.4194 -100.8414 109° East 460 529 36,900  Level Houston Center
09:00PM 30.3789 -100.7042 109° East 458 527 36,900  Level Houston Center
09:01PM 30.3375 -100.5644 109° East 456 525 36,900 -393 Level Houston Center
09:02PM 30.2961 -100.4258 109° East 456 525 36,100 -885 Descending Houston Center
09:03PM 30.2542 -100.2861 109° East 454 522 35,100 -1,983 Descending Houston Center
09:04PM 30.2108 -100.1436 109° East 457 526 32,100 -3,124 Descending Houston Center
09:05PM 30.1667 -100.0022 110° East 458 527 28,800 -2,951 Descending Houston Center
09:06PM 30.1239 -99.8636 110° East 458 527 26,100 -2,607 Descending Houston Center
09:07PM 30.0825 -99.7306 110° East 445 512 23,500 -2,508 Descending Houston Center
09:08PM 30.0433 -99.6028 109° East 426 490 21,000 -2,459 Descending Houston Center
09:09PM 30.0053 -99.4789 110° East 415 478 18,500 -2,430 Descending Houston Center
09:10PM 29.9689 -99.3611 110° East 393 452 16,100 -2,331 Descending Houston Center
09:11PM 29.9317 -99.2461 110° East 385 443 13,800 -2,496 Descending Houston Center
09:12PM 29.8886 -99.1306 113° Southeast 366 421 11,400 -1,869 Descending Houston Center
09:13PM 29.8375 -99.0192 118° Southeast 334 384 10,000 -1,218 Descending Houston Center
09:14PM 29.7936 -98.9319 120° Southeast 286 329 8,700 -1,128 Descending Houston Center
09:15PM 29.7586 -98.8661 121° Southeast 276 318 7,800 -1,148 Descending Houston Center
09:16PM 29.7253 -98.7981 119° Southeast 243 280 6,500 -1,377 Descending Houston Center
09:17PM 29.6897 -98.7300 121° Southeast 226 260 5,000 -1,304 Descending Houston Center
09:18PM 29.6642 -98.6800 120° Southeast 209 241 4,000 -1,015 Descending Houston Center
09:18PM 29.6586 -98.6689 120° Southeast 208 239 3,900 -689 Descending Houston Center
09:19PM 29.6364 -98.6281 122° Southeast 173 199 3,300 -700 Descending Houston Center
09:19PM 29.6339 -98.6208 112° Southeast 181 208 3,200 -423 Descending Houston Center
09:20PM 29.6108 -98.5778 122° Southeast 162 186 2,800 -639 Descending Houston Center
09:21PM 29.5819 -98.5364 129° Southeast 163 188 1,900 -738 Descending Houston Center
09:22PM 29.5569 -98.5036 131° Southeast 140 161 1,300 -675 Descending Houston Center
09:22PM 29.5483 -98.4919 130° Southeast 124 143 1,000 -492 Descending Houston Center
09:23PM 29.5325 -98.4761 139° Southeast 131 151 800 -286 Descending Houston Center
09:25PM 29.5333 -98.4667 120° Southeast  Level FlightAware Approximate